TAF Text Data
IDs:
Format:
Raw Decoded Include METAR

Data at: 1307 UTC 17 Dec 2018

KPHX 171251Z 11003KT 10SM CLR 09/00 A3013 RMK AO2 SLP196 T00890000

KPHX 171120Z 1712/1818 10005KT P6SM FEW160 SCT230
  FM172300 28004KT P6SM FEW120 SCT150 BKN250
  FM180500 11005KT P6SM FEW120 SCT250